createdAt,value
2022-08-18T00:00:56.240Z,4.70
2022-08-18T00:06:18.329Z,5.00
2022-08-18T00:11:43.594Z,4.40
2022-08-18T00:17:05.447Z,4.78
2022-08-18T00:22:27.154Z,4.80
2022-08-18T00:27:49.366Z,4.78
2022-08-18T00:33:11.102Z,4.55
2022-08-18T00:38:32.799Z,4.68
2022-08-18T00:43:55.532Z,5.03
2022-08-18T00:49:18.323Z,4.85
2022-08-18T00:54:41.729Z,4.22
2022-08-18T01:00:11.993Z,4.57
2022-08-18T01:05:45.645Z,4.38
2022-08-18T01:11:07.801Z,4.80
2022-08-18T01:16:53.140Z,4.00
2022-08-18T01:22:25.477Z,4.88
2022-08-18T01:27:47.239Z,5.05
2022-08-18T01:33:10.511Z,5.15
2022-08-18T01:38:32.214Z,5.10
2022-08-18T01:43:53.938Z,5.13
2022-08-18T01:49:15.683Z,4.53
2022-08-18T01:54:37.541Z,4.90
2022-08-18T02:00:01.062Z,5.10
2022-08-18T02:05:31.524Z,4.90
2022-08-18T02:10:53.340Z,4.57
2022-08-18T02:16:16.785Z,4.78
2022-08-18T02:21:38.690Z,4.70
2022-08-18T02:27:00.764Z,4.68
2022-08-18T02:32:22.498Z,4.38
2022-08-18T02:37:48.563Z,4.60
2022-08-18T02:43:10.323Z,4.22
2022-08-18T02:48:34.658Z,4.30
2022-08-18T02:53:59.586Z,4.63
2022-08-18T02:59:27.537Z,4.53
2022-08-18T03:04:49.275Z,4.95
2022-08-18T03:10:32.743Z,4.80
2022-08-18T03:15:56.859Z,4.57
2022-08-18T03:21:21.649Z,4.68
2022-08-18T03:26:45.111Z,4.30
2022-08-18T03:32:08.612Z,4.93
2022-08-18T03:37:30.294Z,4.40
2022-08-18T03:42:52.131Z,4.50
2022-08-18T03:48:13.966Z,4.50
2022-08-18T03:53:37.174Z,4.22
2022-08-18T03:59:04.826Z,4.50
2022-08-18T04:04:28.606Z,4.68
2022-08-18T04:09:50.390Z,4.85
2022-08-18T04:15:12.195Z,5.25
2022-08-18T04:20:35.449Z,4.90
2022-08-18T04:26:02.046Z,4.60
2022-08-18T04:31:24.738Z,4.68
2022-08-18T04:36:46.833Z,4.90
2022-08-18T04:42:08.757Z,5.00
2022-08-18T04:47:30.486Z,5.03
2022-08-18T04:53:11.027Z,4.85
2022-08-18T04:58:32.769Z,4.90
2022-08-18T05:03:56.310Z,4.97
2022-08-18T05:09:22.956Z,4.70
2022-08-18T05:14:45.678Z,4.80
2022-08-18T05:20:08.811Z,4.88
2022-08-18T05:25:30.563Z,4.68
2022-08-18T05:30:52.463Z,4.50
2022-08-18T05:36:26.169Z,4.85
2022-08-18T05:41:54.350Z,5.57
2022-08-18T05:47:29.522Z,5.30
2022-08-18T05:52:58.216Z,5.13
2022-08-18T05:58:33.324Z,5.60
2022-08-18T06:04:05.871Z,5.40
2022-08-18T06:09:43.574Z,5.50
2022-08-18T06:15:22.544Z,5.38
2022-08-18T06:21:22.257Z,5.00
2022-08-18T06:27:19.354Z,5.78
2022-08-18T06:33:18.307Z,6.05
2022-08-18T06:39:03.124Z,6.75
2022-08-18T06:44:49.043Z,6.82
2022-08-18T06:50:29.565Z,6.80
2022-08-18T06:55:51.778Z,7.68
2022-08-18T07:01:17.730Z,7.45
2022-08-18T07:06:39.470Z,8.40
2022-08-18T07:12:09.857Z,7.00
2022-08-18T07:17:42.716Z,7.72
2022-08-18T07:23:08.341Z,6.72
2022-08-18T07:28:36.744Z,7.13
2022-08-18T07:34:05.092Z,7.55
2022-08-18T07:39:48.435Z,7.35
2022-08-18T07:45:30.092Z,6.35
2022-08-18T07:51:05.306Z,5.75
2022-08-18T07:57:01.257Z,6.50
2022-08-18T08:02:26.845Z,5.88
2022-08-18T08:07:57.899Z,4.82
2022-08-18T08:13:54.228Z,5.40
2022-08-18T08:19:59.028Z,5.28
2022-08-18T08:25:45.263Z,5.30
2022-08-18T08:31:38.215Z,5.40
2022-08-18T08:37:12.507Z,5.60
2022-08-18T08:42:41.805Z,5.43
2022-08-18T08:48:20.431Z,5.28
2022-08-18T08:53:58.212Z,5.60
2022-08-18T08:59:22.758Z,6.18
2022-08-18T09:05:09.139Z,6.65
2022-08-18T09:10:48.270Z,6.00
2022-08-18T09:16:27.642Z,5.85
2022-08-18T09:22:45.497Z,5.32
2022-08-18T09:28:15.397Z,5.47
2022-08-18T09:33:46.335Z,5.00
2022-08-18T09:39:54.894Z,5.65
2022-08-18T09:45:33.347Z,5.80
2022-08-18T09:51:32.420Z,7.05
2022-08-18T09:57:09.346Z,6.82
2022-08-18T10:08:28.062Z,5.95
2022-08-18T10:14:13.835Z,5.75
2022-08-18T10:20:26.676Z,6.78
2022-08-18T10:25:48.880Z,7.63
2022-08-18T10:31:10.738Z,7.60
2022-08-18T10:36:47.720Z,8.40
2022-08-18T10:42:11.119Z,6.60
2022-08-18T10:47:37.174Z,7.50
2022-08-18T10:59:47.736Z,6.93
2022-08-18T11:05:18.386Z,6.68
2022-08-18T11:17:07.045Z,6.68
2022-08-18T11:22:34.154Z,7.10
2022-08-18T11:27:57.881Z,8.27
2022-08-18T11:33:24.531Z,7.93
2022-08-18T11:38:56.579Z,6.82
2022-08-18T11:44:26.416Z,8.43
2022-08-18T11:50:10.360Z,7.30
2022-08-18T11:55:34.296Z,7.90
2022-08-18T12:01:01.652Z,7.53
2022-08-18T12:06:29.907Z,8.20
2022-08-18T12:11:56.484Z,7.28
2022-08-18T12:17:19.874Z,7.45
2022-08-18T12:22:44.305Z,6.32
2022-08-18T12:28:11.134Z,6.60
2022-08-18T12:33:34.575Z,7.35
2022-08-18T12:39:09.800Z,6.30
2022-08-18T12:44:31.533Z,6.53
2022-08-18T12:49:53.706Z,6.75
2022-08-18T12:55:21.752Z,6.05
2022-08-18T13:00:44.362Z,6.90
2022-08-18T13:06:06.433Z,7.10
2022-08-18T13:11:29.790Z,7.22
2022-08-18T13:16:53.791Z,6.53
2022-08-18T13:22:16.826Z,6.68
2022-08-18T13:27:39.394Z,6.15
2022-08-18T13:33:34.381Z,6.88
2022-08-18T13:38:54.462Z,6.35
2022-08-18T13:44:18.865Z,6.32
2022-08-18T13:49:41.584Z,5.55
2022-08-18T13:55:21.197Z,5.32
2022-08-18T14:00:42.997Z,5.40
2022-08-18T14:06:07.005Z,6.22
2022-08-18T14:11:33.477Z,4.88
2022-08-18T14:16:55.317Z,5.75
2022-08-18T14:22:36.981Z,5.32
2022-08-18T14:27:59.110Z,5.53
2022-08-18T14:33:34.253Z,4.95
2022-08-18T14:39:10.185Z,5.05
2022-08-18T14:44:32.836Z,4.78
2022-08-18T14:49:57.125Z,4.70
2022-08-18T14:55:19.339Z,5.20
2022-08-18T15:00:53.876Z,4.85
2022-08-18T15:06:17.243Z,5.20
2022-08-18T15:11:44.914Z,4.78
2022-08-18T15:17:11.721Z,4.90
2022-08-18T15:23:18.018Z,4.95
2022-08-18T15:28:45.232Z,4.97
2022-08-18T15:34:07.626Z,5.15
2022-08-18T15:39:34.518Z,4.72
2022-08-18T15:44:56.775Z,5.15
2022-08-18T15:50:21.963Z,5.38
2022-08-18T15:55:50.226Z,5.32
2022-08-18T16:01:30.633Z,5.07
2022-08-18T16:06:56.081Z,4.97
2022-08-18T16:12:17.859Z,5.05
2022-08-18T16:17:39.571Z,5.75
2022-08-18T16:23:01.364Z,5.30
2022-08-18T16:28:35.057Z,4.72
2022-08-18T16:33:57.847Z,5.50
2022-08-18T16:39:19.634Z,4.78
2022-08-18T16:44:42.176Z,4.90
2022-08-18T16:50:05.787Z,4.40
2022-08-18T16:55:27.911Z,4.68
2022-08-18T17:01:09.963Z,5.10
2022-08-18T17:06:35.355Z,5.65
2022-08-18T17:12:09.146Z,5.53
2022-08-18T17:17:31.676Z,5.57
2022-08-18T17:22:53.632Z,6.03
2022-08-18T17:28:18.835Z,5.45
2022-08-18T17:33:45.533Z,5.70
2022-08-18T17:39:11.422Z,6.13
2022-08-18T17:44:52.028Z,5.45
2022-08-18T17:50:45.746Z,5.30
2022-08-18T17:56:21.109Z,5.95
2022-08-18T18:01:43.668Z,6.65
2022-08-18T18:07:05.959Z,7.55
2022-08-18T18:12:30.886Z,7.25
2022-08-18T18:17:52.697Z,8.18
2022-08-18T18:23:19.303Z,8.70
2022-08-18T18:28:41.012Z,7.28
2022-08-18T18:34:06.933Z,8.25
2022-08-18T18:39:55.309Z,8.88
2022-08-18T18:45:27.593Z,8.27
2022-08-18T18:51:06.419Z,7.82
2022-08-18T18:56:45.599Z,9.05
2022-08-18T19:02:36.583Z,8.20
2022-08-18T19:09:03.185Z,9.45
2022-08-18T19:14:31.989Z,9.40
2022-08-18T19:20:00.509Z,10.15
2022-08-18T19:25:41.281Z,10.23
2022-08-18T19:31:28.607Z,9.20
2022-08-18T19:37:14.515Z,11.23
2022-08-18T19:42:54.438Z,11.25
2022-08-18T19:48:29.845Z,10.75
2022-08-18T19:54:18.984Z,10.43
2022-08-18T19:59:43.681Z,9.65
2022-08-18T20:05:22.604Z,11.23
2022-08-18T20:10:50.949Z,9.85
2022-08-18T20:16:28.563Z,9.32
2022-08-18T20:22:15.888Z,9.13
2022-08-18T20:27:44.478Z,10.57
2022-08-18T20:33:11.211Z,10.02
2022-08-18T20:38:45.528Z,9.48
2022-08-18T20:44:29.247Z,8.75
2022-08-18T20:50:33.533Z,8.88
2022-08-18T20:56:31.595Z,8.43
2022-08-18T21:02:08.528Z,8.48
2022-08-18T21:07:36.298Z,8.23
2022-08-18T21:13:02.230Z,7.53
2022-08-18T21:18:25.333Z,7.93
2022-08-18T21:23:53.109Z,8.20
2022-08-18T21:29:16.283Z,8.07
2022-08-18T21:34:45.050Z,8.48
2022-08-18T21:40:07.780Z,9.18
2022-08-18T21:45:29.746Z,8.77
2022-08-18T21:50:58.112Z,9.63
2022-08-18T21:56:31.384Z,8.73
2022-08-18T22:01:56.544Z,9.05
2022-08-18T22:07:34.663Z,8.82
2022-08-18T22:13:16.888Z,10.15
2022-08-18T22:18:39.733Z,9.70
2022-08-18T22:24:19.710Z,10.63
2022-08-18T22:30:04.454Z,9.80
2022-08-18T22:35:27.727Z,10.75
2022-08-18T22:40:49.941Z,10.07
2022-08-18T22:46:11.877Z,10.70
2022-08-18T22:51:42.617Z,10.88
2022-08-18T22:57:04.697Z,11.27
2022-08-18T23:02:28.349Z,10.43
2022-08-18T23:07:50.535Z,10.63
2022-08-18T23:13:12.364Z,11.73
2022-08-18T23:18:34.143Z,11.95
2022-08-18T23:23:56.537Z,11.57
2022-08-18T23:29:20.779Z,11.30
2022-08-18T23:34:42.557Z,11.55
2022-08-18T23:40:05.002Z,11.52
2022-08-18T23:45:27.825Z,11.35
2022-08-18T23:50:49.634Z,12.70
2022-08-18T23:56:11.371Z,12.00
